sensor_id;sensor_type;location;lat;lon;timestamp;P1;durP1;ratioP1;P2;durP2;ratioP2
4630;SDS011;2328;48.170;11.602;2023-08-30T00:01:55;10.57;;;5.57;;
4630;SDS011;2328;48.170;11.602;2023-08-30T00:04:24;8.50;;;5.30;;
4630;SDS011;2328;48.170;11.602;2023-08-30T00:06:54;8.20;;;5.50;;
4630;SDS011;2328;48.170;11.602;2023-08-30T00:09:23;5.53;;;4.30;;
4630;SDS011;2328;48.170;11.602;2023-08-30T00:11:51;7.63;;;5.10;;
4630;SDS011;2328;48.170;11.602;2023-08-30T00:14:20;7.00;;;4.80;;
4630;SDS011;2328;48.170;11.602;2023-08-30T00:16:48;8.97;;;5.43;;
4630;SDS011;2328;48.170;11.602;2023-08-30T00:19:17;8.47;;;5.10;;
4630;SDS011;2328;48.170;11.602;2023-08-30T00:21:45;7.57;;;4.47;;
4630;SDS011;2328;48.170;11.602;2023-08-30T00:24:15;9.73;;;5.60;;
4630;SDS011;2328;48.170;11.602;2023-08-30T00:26:44;7.23;;;4.60;;
4630;SDS011;2328;48.170;11.602;2023-08-30T00:29:13;7.93;;;5.10;;
4630;SDS011;2328;48.170;11.602;2023-08-30T00:31:41;5.50;;;4.47;;
4630;SDS011;2328;48.170;11.602;2023-08-30T00:34:11;7.90;;;4.70;;
4630;SDS011;2328;48.170;11.602;2023-08-30T00:36:41;6.60;;;4.70;;
4630;SDS011;2328;48.170;11.602;2023-08-30T00:39:10;6.03;;;4.60;;
4630;SDS011;2328;48.170;11.602;2023-08-30T00:41:40;10.27;;;6.00;;
4630;SDS011;2328;48.170;11.602;2023-08-30T00:44:09;7.13;;;4.90;;
4630;SDS011;2328;48.170;11.602;2023-08-30T00:46:51;9.33;;;5.50;;
4630;SDS011;2328;48.170;11.602;2023-08-30T00:49:20;8.63;;;5.27;;
4630;SDS011;2328;48.170;11.602;2023-08-30T00:51:49;9.90;;;5.43;;
4630;SDS011;2328;48.170;11.602;2023-08-30T00:54:18;10.23;;;5.13;;
4630;SDS011;2328;48.170;11.602;2023-08-30T00:56:49;9.00;;;5.23;;
4630;SDS011;2328;48.170;11.602;2023-08-30T00:59:18;6.57;;;4.40;;
4630;SDS011;2328;48.170;11.602;2023-08-30T01:01:46;8.57;;;5.50;;
4630;SDS011;2328;48.170;11.602;2023-08-30T01:04:15;8.73;;;5.07;;
4630;SDS011;2328;48.170;11.602;2023-08-30T01:06:44;6.63;;;4.07;;
4630;SDS011;2328;48.170;11.602;2023-08-30T01:09:15;11.00;;;5.47;;
4630;SDS011;2328;48.170;11.602;2023-08-30T01:11:45;8.07;;;5.63;;
4630;SDS011;2328;48.170;11.602;2023-08-30T01:14:18;9.20;;;5.30;;
4630;SDS011;2328;48.170;11.602;2023-08-30T01:16:48;7.40;;;5.10;;
4630;SDS011;2328;48.170;11.602;2023-08-30T01:19:22;6.83;;;5.00;;
4630;SDS011;2328;48.170;11.602;2023-08-30T01:21:56;8.97;;;5.20;;
4630;SDS011;2328;48.170;11.602;2023-08-30T01:24:28;8.73;;;5.67;;
4630;SDS011;2328;48.170;11.602;2023-08-30T01:27:05;7.07;;;4.40;;
4630;SDS011;2328;48.170;11.602;2023-08-30T01:29:36;8.70;;;4.83;;
4630;SDS011;2328;48.170;11.602;2023-08-30T01:32:05;13.20;;;6.50;;
4630;SDS011;2328;48.170;11.602;2023-08-30T01:34:36;7.93;;;4.90;;
4630;SDS011;2328;48.170;11.602;2023-08-30T01:37:05;6.77;;;4.47;;
4630;SDS011;2328;48.170;11.602;2023-08-30T01:39:34;6.67;;;4.60;;
4630;SDS011;2328;48.170;11.602;2023-08-30T01:42:06;7.50;;;4.80;;
4630;SDS011;2328;48.170;11.602;2023-08-30T01:44:35;9.80;;;5.97;;
4630;SDS011;2328;48.170;11.602;2023-08-30T01:47:04;7.93;;;4.63;;
4630;SDS011;2328;48.170;11.602;2023-08-30T01:49:32;7.50;;;5.00;;
4630;SDS011;2328;48.170;11.602;2023-08-30T01:52:04;8.03;;;5.13;;
4630;SDS011;2328;48.170;11.602;2023-08-30T01:54:32;9.73;;;4.67;;
4630;SDS011;2328;48.170;11.602;2023-08-30T01:57:01;7.73;;;4.90;;
4630;SDS011;2328;48.170;11.602;2023-08-30T01:59:31;5.93;;;4.23;;
4630;SDS011;2328;48.170;11.602;2023-08-30T02:02:00;6.47;;;4.90;;
4630;SDS011;2328;48.170;11.602;2023-08-30T02:04:30;5.90;;;4.23;;
4630;SDS011;2328;48.170;11.602;2023-08-30T02:07:00;5.53;;;3.70;;
4630;SDS011;2328;48.170;11.602;2023-08-30T02:09:33;7.00;;;4.60;;
4630;SDS011;2328;48.170;11.602;2023-08-30T02:12:04;6.00;;;3.67;;
4630;SDS011;2328;48.170;11.602;2023-08-30T02:14:36;6.80;;;4.10;;
4630;SDS011;2328;48.170;11.602;2023-08-30T02:17:05;7.67;;;4.60;;
4630;SDS011;2328;48.170;11.602;2023-08-30T02:19:34;6.47;;;4.10;;
4630;SDS011;2328;48.170;11.602;2023-08-30T02:22:02;7.70;;;4.70;;
4630;SDS011;2328;48.170;11.602;2023-08-30T02:24:31;4.93;;;3.50;;
4630;SDS011;2328;48.170;11.602;2023-08-30T02:26:59;4.80;;;3.97;;
4630;SDS011;2328;48.170;11.602;2023-08-30T02:29:28;5.67;;;4.03;;
4630;SDS011;2328;48.170;11.602;2023-08-30T02:31:58;12.70;;;4.47;;
4630;SDS011;2328;48.170;11.602;2023-08-30T02:34:26;9.07;;;4.50;;
4630;SDS011;2328;48.170;11.602;2023-08-30T02:36:55;5.57;;;3.20;;
4630;SDS011;2328;48.170;11.602;2023-08-30T02:39:23;7.40;;;4.43;;
4630;SDS011;2328;48.170;11.602;2023-08-30T02:41:52;7.50;;;4.70;;
4630;SDS011;2328;48.170;11.602;2023-08-30T02:44:21;6.10;;;3.90;;
4630;SDS011;2328;48.170;11.602;2023-08-30T02:46:49;6.33;;;4.33;;
4630;SDS011;2328;48.170;11.602;2023-08-30T02:49:19;4.93;;;3.60;;
4630;SDS011;2328;48.170;11.602;2023-08-30T02:51:48;5.67;;;3.87;;
4630;SDS011;2328;48.170;11.602;2023-08-30T02:54:16;4.30;;;3.33;;
4630;SDS011;2328;48.170;11.602;2023-08-30T02:56:45;6.30;;;4.00;;
4630;SDS011;2328;48.170;11.602;2023-08-30T02:59:13;8.10;;;4.03;;
4630;SDS011;2328;48.170;11.602;2023-08-30T03:01:42;4.53;;;3.13;;
4630;SDS011;2328;48.170;11.602;2023-08-30T03:04:10;5.83;;;4.10;;
4630;SDS011;2328;48.170;11.602;2023-08-30T03:06:40;6.53;;;4.37;;
4630;SDS011;2328;48.170;11.602;2023-08-30T03:09:09;4.37;;;3.07;;
4630;SDS011;2328;48.170;11.602;2023-08-30T03:11:38;4.37;;;3.30;;
4630;SDS011;2328;48.170;11.602;2023-08-30T03:14:06;4.37;;;3.40;;
4630;SDS011;2328;48.170;11.602;2023-08-30T03:16:35;6.60;;;4.00;;
4630;SDS011;2328;48.170;11.602;2023-08-30T03:19:04;5.33;;;4.13;;
4630;SDS011;2328;48.170;11.602;2023-08-30T03:21:32;4.10;;;3.40;;
4630;SDS011;2328;48.170;11.602;2023-08-30T03:24:02;6.00;;;3.60;;
4630;SDS011;2328;48.170;11.602;2023-08-30T03:26:31;5.70;;;3.43;;
4630;SDS011;2328;48.170;11.602;2023-08-30T03:28:59;5.50;;;4.07;;
4630;SDS011;2328;48.170;11.602;2023-08-30T03:31:28;6.43;;;4.07;;
4630;SDS011;2328;48.170;11.602;2023-08-30T03:33:59;7.33;;;3.93;;
4630;SDS011;2328;48.170;11.602;2023-08-30T03:36:28;5.77;;;3.43;;
4630;SDS011;2328;48.170;11.602;2023-08-30T03:38:56;8.97;;;4.20;;
4630;SDS011;2328;48.170;11.602;2023-08-30T03:41:26;4.53;;;3.10;;
4630;SDS011;2328;48.170;11.602;2023-08-30T03:43:55;6.43;;;3.80;;
4630;SDS011;2328;48.170;11.602;2023-08-30T03:46:23;5.30;;;3.77;;
4630;SDS011;2328;48.170;11.602;2023-08-30T03:48:52;6.80;;;3.60;;
4630;SDS011;2328;48.170;11.602;2023-08-30T03:51:20;7.67;;;3.93;;
4630;SDS011;2328;48.170;11.602;2023-08-30T03:53:49;5.30;;;3.87;;
4630;SDS011;2328;48.170;11.602;2023-08-30T03:56:17;4.57;;;3.40;;
4630;SDS011;2328;48.170;11.602;2023-08-30T03:58:47;7.87;;;4.47;;
4630;SDS011;2328;48.170;11.602;2023-08-30T04:01:16;6.53;;;4.07;;
4630;SDS011;2328;48.170;11.602;2023-08-30T04:03:44;7.53;;;3.83;;
4630;SDS011;2328;48.170;11.602;2023-08-30T04:06:13;5.03;;;3.23;;
4630;SDS011;2328;48.170;11.602;2023-08-30T04:08:41;4.40;;;3.73;;
4630;SDS011;2328;48.170;11.602;2023-08-30T04:11:18;6.60;;;3.57;;
4630;SDS011;2328;48.170;11.602;2023-08-30T04:13:48;4.93;;;3.40;;
4630;SDS011;2328;48.170;11.602;2023-08-30T04:16:16;4.73;;;3.83;;
4630;SDS011;2328;48.170;11.602;2023-08-30T04:18:45;5.67;;;3.50;;
4630;SDS011;2328;48.170;11.602;2023-08-30T04:21:13;4.53;;;3.73;;
4630;SDS011;2328;48.170;11.602;2023-08-30T04:23:42;4.87;;;3.80;;
4630;SDS011;2328;48.170;11.602;2023-08-30T04:26:10;7.17;;;3.60;;
4630;SDS011;2328;48.170;11.602;2023-08-30T04:28:39;6.47;;;3.73;;
4630;SDS011;2328;48.170;11.602;2023-08-30T04:31:09;4.20;;;3.27;;
4630;SDS011;2328;48.170;11.602;2023-08-30T04:33:38;5.37;;;4.27;;
4630;SDS011;2328;48.170;11.602;2023-08-30T04:36:06;5.83;;;3.50;;
4630;SDS011;2328;48.170;11.602;2023-08-30T04:38:35;4.00;;;3.27;;
4630;SDS011;2328;48.170;11.602;2023-08-30T04:41:17;6.47;;;3.50;;
4630;SDS011;2328;48.170;11.602;2023-08-30T04:43:46;4.77;;;2.80;;
4630;SDS011;2328;48.170;11.602;2023-08-30T04:46:16;5.27;;;4.37;;
4630;SDS011;2328;48.170;11.602;2023-08-30T04:48:44;5.03;;;4.27;;
4630;SDS011;2328;48.170;11.602;2023-08-30T04:51:13;4.70;;;3.17;;
4630;SDS011;2328;48.170;11.602;2023-08-30T04:53:42;7.23;;;4.90;;
4630;SDS011;2328;48.170;11.602;2023-08-30T04:56:11;5.30;;;3.80;;
4630;SDS011;2328;48.170;11.602;2023-08-30T04:58:39;5.90;;;3.80;;
4630;SDS011;2328;48.170;11.602;2023-08-30T05:01:08;4.83;;;3.40;;
4630;SDS011;2328;48.170;11.602;2023-08-30T05:03:41;4.70;;;3.40;;
4630;SDS011;2328;48.170;11.602;2023-08-30T05:06:09;5.47;;;4.23;;
4630;SDS011;2328;48.170;11.602;2023-08-30T05:08:40;3.53;;;2.57;;
4630;SDS011;2328;48.170;11.602;2023-08-30T05:11:08;4.87;;;3.90;;
4630;SDS011;2328;48.170;11.602;2023-08-30T05:13:37;5.37;;;3.87;;
4630;SDS011;2328;48.170;11.602;2023-08-30T05:16:05;5.97;;;3.60;;
4630;SDS011;2328;48.170;11.602;2023-08-30T05:18:34;7.53;;;3.97;;
4630;SDS011;2328;48.170;11.602;2023-08-30T05:21:04;8.90;;;3.83;;
4630;SDS011;2328;48.170;11.602;2023-08-30T05:23:32;6.50;;;3.97;;
4630;SDS011;2328;48.170;11.602;2023-08-30T05:26:01;6.97;;;3.70;;
4630;SDS011;2328;48.170;11.602;2023-08-30T05:28:29;4.80;;;3.57;;
4630;SDS011;2328;48.170;11.602;2023-08-30T05:30:58;6.47;;;3.83;;
4630;SDS011;2328;48.170;11.602;2023-08-30T05:33:30;4.97;;;4.37;;
4630;SDS011;2328;48.170;11.602;2023-08-30T05:35:59;7.80;;;4.43;;
4630;SDS011;2328;48.170;11.602;2023-08-30T05:38:30;6.90;;;4.90;;
4630;SDS011;2328;48.170;11.602;2023-08-30T05:40:58;7.50;;;3.27;;
4630;SDS011;2328;48.170;11.602;2023-08-30T05:43:27;5.77;;;3.80;;
4630;SDS011;2328;48.170;11.602;2023-08-30T05:45:56;4.83;;;3.87;;
4630;SDS011;2328;48.170;11.602;2023-08-30T05:48:28;4.37;;;3.23;;
4630;SDS011;2328;48.170;11.602;2023-08-30T05:50:57;5.53;;;3.63;;
4630;SDS011;2328;48.170;11.602;2023-08-30T05:53:25;5.90;;;4.20;;
4630;SDS011;2328;48.170;11.602;2023-08-30T05:55:55;5.07;;;3.33;;
4630;SDS011;2328;48.170;11.602;2023-08-30T05:58:24;12.30;;;4.07;;
4630;SDS011;2328;48.170;11.602;2023-08-30T06:00:52;4.93;;;3.60;;
4630;SDS011;2328;48.170;11.602;2023-08-30T06:03:20;5.03;;;3.93;;
4630;SDS011;2328;48.170;11.602;2023-08-30T06:05:49;6.43;;;3.40;;
4630;SDS011;2328;48.170;11.602;2023-08-30T06:08:17;4.80;;;3.40;;
4630;SDS011;2328;48.170;11.602;2023-08-30T06:10:47;5.60;;;3.87;;
4630;SDS011;2328;48.170;11.602;2023-08-30T06:13:16;3.90;;;2.87;;
4630;SDS011;2328;48.170;11.602;2023-08-30T06:15:49;3.90;;;2.80;;
4630;SDS011;2328;48.170;11.602;2023-08-30T06:18:18;5.60;;;3.70;;
4630;SDS011;2328;48.170;11.602;2023-08-30T06:20:46;5.67;;;3.93;;
4630;SDS011;2328;48.170;11.602;2023-08-30T06:23:18;5.93;;;3.93;;
4630;SDS011;2328;48.170;11.602;2023-08-30T06:25:53;6.43;;;4.13;;
4630;SDS011;2328;48.170;11.602;2023-08-30T06:28:23;4.10;;;3.20;;
4630;SDS011;2328;48.170;11.602;2023-08-30T06:30:52;3.63;;;2.80;;
4630;SDS011;2328;48.170;11.602;2023-08-30T06:33:20;9.00;;;3.40;;
4630;SDS011;2328;48.170;11.602;2023-08-30T06:35:49;4.10;;;3.33;;
4630;SDS011;2328;48.170;11.602;2023-08-30T06:38:19;3.33;;;3.00;;
4630;SDS011;2328;48.170;11.602;2023-08-30T06:40:48;5.77;;;3.60;;
4630;SDS011;2328;48.170;11.602;2023-08-30T06:43:17;4.33;;;3.37;;
4630;SDS011;2328;48.170;11.602;2023-08-30T06:45:47;5.30;;;3.50;;
4630;SDS011;2328;48.170;11.602;2023-08-30T06:48:16;5.47;;;3.53;;
4630;SDS011;2328;48.170;11.602;2023-08-30T06:50:44;5.23;;;3.30;;
4630;SDS011;2328;48.170;11.602;2023-08-30T06:53:13;5.53;;;3.17;;
4630;SDS011;2328;48.170;11.602;2023-08-30T06:55:41;5.23;;;3.97;;
4630;SDS011;2328;48.170;11.602;2023-08-30T06:58:12;7.57;;;4.60;;
4630;SDS011;2328;48.170;11.602;2023-08-30T07:00:41;5.97;;;3.80;;
4630;SDS011;2328;48.170;11.602;2023-08-30T07:03:11;5.30;;;3.63;;
4630;SDS011;2328;48.170;11.602;2023-08-30T07:05:39;5.20;;;3.60;;
4630;SDS011;2328;48.170;11.602;2023-08-30T07:10:58;5.03;;;3.60;;
4630;SDS011;2328;48.170;11.602;2023-08-30T07:13:28;6.53;;;4.00;;
4630;SDS011;2328;48.170;11.602;2023-08-30T07:15:57;5.10;;;3.63;;
4630;SDS011;2328;48.170;11.602;2023-08-30T07:18:27;7.50;;;4.70;;
4630;SDS011;2328;48.170;11.602;2023-08-30T07:20:55;5.77;;;4.03;;
4630;SDS011;2328;48.170;11.602;2023-08-30T07:23:24;7.50;;;4.60;;
4630;SDS011;2328;48.170;11.602;2023-08-30T07:25:53;7.03;;;4.77;;
4630;SDS011;2328;48.170;11.602;2023-08-30T07:28:22;5.43;;;3.87;;
4630;SDS011;2328;48.170;11.602;2023-08-30T07:33:23;7.30;;;4.23;;
4630;SDS011;2328;48.170;11.602;2023-08-30T07:35:54;5.47;;;4.53;;
4630;SDS011;2328;48.170;11.602;2023-08-30T07:38:23;6.97;;;4.70;;
4630;SDS011;2328;48.170;11.602;2023-08-30T07:40:51;6.73;;;4.47;;
4630;SDS011;2328;48.170;11.602;2023-08-30T07:43:20;7.53;;;4.87;;
4630;SDS011;2328;48.170;11.602;2023-08-30T07:45:49;6.60;;;4.40;;
4630;SDS011;2328;48.170;11.602;2023-08-30T07:48:17;6.27;;;4.90;;
4630;SDS011;2328;48.170;11.602;2023-08-30T07:50:46;6.33;;;4.70;;
4630;SDS011;2328;48.170;11.602;2023-08-30T07:53:16;5.50;;;4.17;;
4630;SDS011;2328;48.170;11.602;2023-08-30T07:55:47;7.53;;;4.67;;
4630;SDS011;2328;48.170;11.602;2023-08-30T07:58:17;5.83;;;4.20;;
4630;SDS011;2328;48.170;11.602;2023-08-30T08:00:46;7.03;;;4.80;;
4630;SDS011;2328;48.170;11.602;2023-08-30T08:03:19;10.17;;;5.30;;
4630;SDS011;2328;48.170;11.602;2023-08-30T08:05:48;7.43;;;5.20;;
4630;SDS011;2328;48.170;11.602;2023-08-30T08:08:18;9.43;;;5.33;;
4630;SDS011;2328;48.170;11.602;2023-08-30T08:10:46;7.63;;;5.00;;
4630;SDS011;2328;48.170;11.602;2023-08-30T08:13:15;5.83;;;4.10;;
4630;SDS011;2328;48.170;11.602;2023-08-30T08:15:44;9.20;;;5.40;;
4630;SDS011;2328;48.170;11.602;2023-08-30T08:18:13;8.27;;;4.83;;
4630;SDS011;2328;48.170;11.602;2023-08-30T08:20:42;8.80;;;5.23;;
4630;SDS011;2328;48.170;11.602;2023-08-30T08:23:10;6.97;;;5.33;;
4630;SDS011;2328;48.170;11.602;2023-08-30T08:25:42;6.40;;;4.53;;
4630;SDS011;2328;48.170;11.602;2023-08-30T08:28:11;6.37;;;5.00;;
4630;SDS011;2328;48.170;11.602;2023-08-30T08:30:39;6.57;;;4.60;;
4630;SDS011;2328;48.170;11.602;2023-08-30T08:33:08;8.37;;;5.40;;
4630;SDS011;2328;48.170;11.602;2023-08-30T08:35:37;9.23;;;6.23;;
4630;SDS011;2328;48.170;11.602;2023-08-30T08:38:06;19.20;;;5.80;;
4630;SDS011;2328;48.170;11.602;2023-08-30T08:40:36;7.83;;;5.13;;
4630;SDS011;2328;48.170;11.602;2023-08-30T08:43:10;9.77;;;5.17;;
4630;SDS011;2328;48.170;11.602;2023-08-30T08:45:40;10.67;;;5.90;;
4630;SDS011;2328;48.170;11.602;2023-08-30T08:48:08;7.40;;;4.97;;
4630;SDS011;2328;48.170;11.602;2023-08-30T08:50:38;10.70;;;5.67;;
4630;SDS011;2328;48.170;11.602;2023-08-30T08:53:07;5.23;;;4.40;;
4630;SDS011;2328;48.170;11.602;2023-08-30T08:55:36;6.70;;;5.27;;
4630;SDS011;2328;48.170;11.602;2023-08-30T08:58:06;5.60;;;4.37;;
4630;SDS011;2328;48.170;11.602;2023-08-30T09:00:36;8.47;;;5.60;;
4630;SDS011;2328;48.170;11.602;2023-08-30T09:03:06;7.13;;;4.43;;
4630;SDS011;2328;48.170;11.602;2023-08-30T09:08:44;7.07;;;5.03;;
4630;SDS011;2328;48.170;11.602;2023-08-30T09:11:14;7.33;;;5.10;;
4630;SDS011;2328;48.170;11.602;2023-08-30T09:13:44;9.33;;;5.50;;
4630;SDS011;2328;48.170;11.602;2023-08-30T09:16:14;8.37;;;5.27;;
4630;SDS011;2328;48.170;11.602;2023-08-30T09:18:43;7.80;;;4.97;;
4630;SDS011;2328;48.170;11.602;2023-08-30T09:21:32;8.80;;;4.80;;
4630;SDS011;2328;48.170;11.602;2023-08-30T09:24:01;5.77;;;4.40;;
4630;SDS011;2328;48.170;11.602;2023-08-30T09:26:30;4.27;;;2.90;;
4630;SDS011;2328;48.170;11.602;2023-08-30T09:29:02;4.73;;;3.53;;
4630;SDS011;2328;48.170;11.602;2023-08-30T09:31:36;4.40;;;3.50;;
4630;SDS011;2328;48.170;11.602;2023-08-30T09:34:11;2.97;;;2.60;;
4630;SDS011;2328;48.170;11.602;2023-08-30T09:36:41;3.57;;;3.20;;
4630;SDS011;2328;48.170;11.602;2023-08-30T09:39:16;9.73;;;2.70;;
4630;SDS011;2328;48.170;11.602;2023-08-30T09:41:45;3.63;;;2.37;;
4630;SDS011;2328;48.170;11.602;2023-08-30T09:44:18;3.47;;;3.17;;
4630;SDS011;2328;48.170;11.602;2023-08-30T09:46:51;3.27;;;2.97;;
4630;SDS011;2328;48.170;11.602;2023-08-30T09:49:20;6.23;;;3.10;;
4630;SDS011;2328;48.170;11.602;2023-08-30T09:51:49;2.80;;;2.60;;
4630;SDS011;2328;48.170;11.602;2023-08-30T09:54:38;4.23;;;3.07;;
4630;SDS011;2328;48.170;11.602;2023-08-30T09:57:08;3.43;;;2.73;;
4630;SDS011;2328;48.170;11.602;2023-08-30T09:59:37;2.47;;;2.27;;
4630;SDS011;2328;48.170;11.602;2023-08-30T10:02:09;2.73;;;2.00;;
4630;SDS011;2328;48.170;11.602;2023-08-30T10:04:38;2.60;;;2.07;;
4630;SDS011;2328;48.170;11.602;2023-08-30T10:07:07;1.73;;;1.60;;
4630;SDS011;2328;48.170;11.602;2023-08-30T10:09:37;2.43;;;2.23;;
4630;SDS011;2328;48.170;11.602;2023-08-30T10:12:20;1.40;;;1.20;;
4630;SDS011;2328;48.170;11.602;2023-08-30T10:14:49;1.77;;;1.60;;
4630;SDS011;2328;48.170;11.602;2023-08-30T10:17:19;2.83;;;2.23;;
4630;SDS011;2328;48.170;11.602;2023-08-30T10:19:50;1.50;;;1.40;;
4630;SDS011;2328;48.170;11.602;2023-08-30T10:22:19;1.10;;;1.00;;
4630;SDS011;2328;48.170;11.602;2023-08-30T10:24:51;1.80;;;1.70;;
4630;SDS011;2328;48.170;11.602;2023-08-30T10:27:36;1.57;;;1.40;;
4630;SDS011;2328;48.170;11.602;2023-08-30T10:30:06;2.50;;;1.67;;
4630;SDS011;2328;48.170;11.602;2023-08-30T10:32:40;1.60;;;1.50;;
4630;SDS011;2328;48.170;11.602;2023-08-30T10:35:10;1.30;;;1.20;;
4630;SDS011;2328;48.170;11.602;2023-08-30T10:40:48;1.63;;;1.10;;
4630;SDS011;2328;48.170;11.602;2023-08-30T10:43:17;2.03;;;1.73;;
4630;SDS011;2328;48.170;11.602;2023-08-30T10:45:58;1.23;;;1.13;;
4630;SDS011;2328;48.170;11.602;2023-08-30T10:48:35;2.20;;;1.07;;
4630;SDS011;2328;48.170;11.602;2023-08-30T10:51:05;1.00;;;0.90;;
4630;SDS011;2328;48.170;11.602;2023-08-30T10:53:35;1.80;;;1.70;;
4630;SDS011;2328;48.170;11.602;2023-08-30T10:56:07;1.43;;;1.33;;
4630;SDS011;2328;48.170;11.602;2023-08-30T10:58:40;1.10;;;1.00;;
4630;SDS011;2328;48.170;11.602;2023-08-30T11:01:10;1.40;;;1.20;;
4630;SDS011;2328;48.170;11.602;2023-08-30T11:03:41;1.03;;;1.03;;
4630;SDS011;2328;48.170;11.602;2023-08-30T11:06:13;1.60;;;1.20;;
4630;SDS011;2328;48.170;11.602;2023-08-30T11:08:43;1.40;;;1.30;;
4630;SDS011;2328;48.170;11.602;2023-08-30T11:11:12;1.23;;;1.00;;
4630;SDS011;2328;48.170;11.602;2023-08-30T11:13:41;1.17;;;1.10;;
4630;SDS011;2328;48.170;11.602;2023-08-30T11:16:09;2.73;;;1.17;;
4630;SDS011;2328;48.170;11.602;2023-08-30T11:18:38;0.87;;;0.87;;
4630;SDS011;2328;48.170;11.602;2023-08-30T11:21:09;1.17;;;1.10;;
4630;SDS011;2328;48.170;11.602;2023-08-30T11:23:39;1.00;;;1.00;;
4630;SDS011;2328;48.170;11.602;2023-08-30T11:26:07;0.83;;;0.63;;
4630;SDS011;2328;48.170;11.602;2023-08-30T11:28:36;0.90;;;0.80;;
4630;SDS011;2328;48.170;11.602;2023-08-30T11:34:15;0.83;;;0.83;;
4630;SDS011;2328;48.170;11.602;2023-08-30T11:36:49;1.13;;;0.90;;
4630;SDS011;2328;48.170;11.602;2023-08-30T11:39:18;1.20;;;1.13;;
4630;SDS011;2328;48.170;11.602;2023-08-30T11:42:00;1.03;;;0.93;;
4630;SDS011;2328;48.170;11.602;2023-08-30T11:44:44;1.30;;;1.00;;
4630;SDS011;2328;48.170;11.602;2023-08-30T11:50:03;3.13;;;1.00;;
4630;SDS011;2328;48.170;11.602;2023-08-30T11:52:34;1.07;;;0.97;;
4630;SDS011;2328;48.170;11.602;2023-08-30T11:55:04;2.60;;;1.10;;
4630;SDS011;2328;48.170;11.602;2023-08-30T11:57:33;1.27;;;1.13;;
4630;SDS011;2328;48.170;11.602;2023-08-30T12:00:08;3.20;;;1.10;;
4630;SDS011;2328;48.170;11.602;2023-08-30T12:02:38;1.53;;;0.90;;
4630;SDS011;2328;48.170;11.602;2023-08-30T12:05:10;0.70;;;0.60;;
4630;SDS011;2328;48.170;11.602;2023-08-30T12:07:41;1.47;;;0.90;;
4630;SDS011;2328;48.170;11.602;2023-08-30T12:10:10;1.00;;;0.80;;
4630;SDS011;2328;48.170;11.602;2023-08-30T12:12:44;1.17;;;0.90;;
4630;SDS011;2328;48.170;11.602;2023-08-30T12:15:13;1.57;;;1.30;;
4630;SDS011;2328;48.170;11.602;2023-08-30T12:17:43;1.40;;;1.07;;
4630;SDS011;2328;48.170;11.602;2023-08-30T12:20:15;1.10;;;0.93;;
4630;SDS011;2328;48.170;11.602;2023-08-30T12:22:49;0.97;;;0.97;;
4630;SDS011;2328;48.170;11.602;2023-08-30T12:25:18;3.03;;;1.50;;
4630;SDS011;2328;48.170;11.602;2023-08-30T12:27:47;0.90;;;0.90;;
4630;SDS011;2328;48.170;11.602;2023-08-30T12:30:16;2.10;;;0.77;;
4630;SDS011;2328;48.170;11.602;2023-08-30T12:32:45;1.20;;;0.90;;
4630;SDS011;2328;48.170;11.602;2023-08-30T12:35:20;0.80;;;0.80;;
4630;SDS011;2328;48.170;11.602;2023-08-30T12:37:50;0.70;;;0.60;;
4630;SDS011;2328;48.170;11.602;2023-08-30T12:40:19;0.70;;;0.70;;
4630;SDS011;2328;48.170;11.602;2023-08-30T12:42:47;1.33;;;1.10;;
4630;SDS011;2328;48.170;11.602;2023-08-30T12:45:16;1.10;;;1.00;;
4630;SDS011;2328;48.170;11.602;2023-08-30T12:47:44;4.20;;;1.10;;
4630;SDS011;2328;48.170;11.602;2023-08-30T12:50:13;0.90;;;0.90;;
4630;SDS011;2328;48.170;11.602;2023-08-30T12:52:42;1.73;;;1.00;;
4630;SDS011;2328;48.170;11.602;2023-08-30T12:55:15;1.10;;;0.87;;
4630;SDS011;2328;48.170;11.602;2023-08-30T12:57:45;1.00;;;1.00;;
4630;SDS011;2328;48.170;11.602;2023-08-30T13:00:14;1.20;;;1.10;;
4630;SDS011;2328;48.170;11.602;2023-08-30T13:02:43;1.03;;;0.83;;
4630;SDS011;2328;48.170;11.602;2023-08-30T13:05:11;0.90;;;0.90;;
4630;SDS011;2328;48.170;11.602;2023-08-30T13:07:41;1.10;;;0.90;;
4630;SDS011;2328;48.170;11.602;2023-08-30T13:10:09;1.73;;;0.90;;
4630;SDS011;2328;48.170;11.602;2023-08-30T13:12:44;0.80;;;0.57;;
4630;SDS011;2328;48.170;11.602;2023-08-30T13:17:52;1.20;;;0.90;;
4630;SDS011;2328;48.170;11.602;2023-08-30T13:20:22;0.80;;;0.70;;
4630;SDS011;2328;48.170;11.602;2023-08-30T13:22:51;1.20;;;1.10;;
4630;SDS011;2328;48.170;11.602;2023-08-30T13:25:19;1.40;;;1.30;;
4630;SDS011;2328;48.170;11.602;2023-08-30T13:27:49;3.67;;;1.50;;
4630;SDS011;2328;48.170;11.602;2023-08-30T13:30:19;1.80;;;1.70;;
4630;SDS011;2328;48.170;11.602;2023-08-30T13:32:49;3.83;;;1.50;;
4630;SDS011;2328;48.170;11.602;2023-08-30T13:35:18;3.50;;;1.57;;
4630;SDS011;2328;48.170;11.602;2023-08-30T13:37:48;1.73;;;1.63;;
4630;SDS011;2328;48.170;11.602;2023-08-30T13:40:16;1.53;;;1.40;;
4630;SDS011;2328;48.170;11.602;2023-08-30T13:42:45;1.57;;;1.47;;
4630;SDS011;2328;48.170;11.602;2023-08-30T13:45:16;2.23;;;1.73;;
4630;SDS011;2328;48.170;11.602;2023-08-30T13:47:46;2.27;;;1.70;;
4630;SDS011;2328;48.170;11.602;2023-08-30T13:50:19;1.60;;;1.50;;
4630;SDS011;2328;48.170;11.602;2023-08-30T13:52:48;1.80;;;1.47;;
4630;SDS011;2328;48.170;11.602;2023-08-30T13:55:18;2.40;;;1.60;;
4630;SDS011;2328;48.170;11.602;2023-08-30T13:57:47;1.60;;;1.50;;
4630;SDS011;2328;48.170;11.602;2023-08-30T14:00:22;1.93;;;1.20;;
4630;SDS011;2328;48.170;11.602;2023-08-30T14:02:51;1.70;;;1.60;;
4630;SDS011;2328;48.170;11.602;2023-08-30T14:05:21;2.70;;;1.67;;
4630;SDS011;2328;48.170;11.602;2023-08-30T14:07:50;1.30;;;1.20;;
4630;SDS011;2328;48.170;11.602;2023-08-30T14:10:19;2.20;;;1.67;;
4630;SDS011;2328;48.170;11.602;2023-08-30T14:12:48;1.30;;;1.10;;
4630;SDS011;2328;48.170;11.602;2023-08-30T14:15:18;1.83;;;1.33;;
4630;SDS011;2328;48.170;11.602;2023-08-30T14:18:00;1.40;;;1.30;;
4630;SDS011;2328;48.170;11.602;2023-08-30T14:20:29;1.37;;;1.10;;
4630;SDS011;2328;48.170;11.602;2023-08-30T14:22:58;2.37;;;1.80;;
4630;SDS011;2328;48.170;11.602;2023-08-30T14:25:27;1.23;;;1.13;;
4630;SDS011;2328;48.170;11.602;2023-08-30T14:27:58;1.60;;;1.40;;
4630;SDS011;2328;48.170;11.602;2023-08-30T14:30:28;1.47;;;1.37;;
4630;SDS011;2328;48.170;11.602;2023-08-30T14:32:58;2.07;;;1.87;;
4630;SDS011;2328;48.170;11.602;2023-08-30T14:35:27;1.60;;;1.50;;
4630;SDS011;2328;48.170;11.602;2023-08-30T14:37:57;3.13;;;1.80;;
4630;SDS011;2328;48.170;11.602;2023-08-30T14:40:31;1.83;;;1.73;;
4630;SDS011;2328;48.170;11.602;2023-08-30T14:43:00;2.10;;;1.73;;
4630;SDS011;2328;48.170;11.602;2023-08-30T14:45:30;1.37;;;1.27;;
4630;SDS011;2328;48.170;11.602;2023-08-30T14:48:08;1.30;;;1.20;;
4630;SDS011;2328;48.170;11.602;2023-08-30T14:50:39;1.57;;;1.47;;
4630;SDS011;2328;48.170;11.602;2023-08-30T14:53:07;2.07;;;1.70;;
4630;SDS011;2328;48.170;11.602;2023-08-30T14:55:36;1.70;;;1.60;;
4630;SDS011;2328;48.170;11.602;2023-08-30T14:58:05;2.17;;;1.57;;
4630;SDS011;2328;48.170;11.602;2023-08-30T15:00:36;1.40;;;1.30;;
4630;SDS011;2328;48.170;11.602;2023-08-30T15:03:05;1.70;;;1.47;;
4630;SDS011;2328;48.170;11.602;2023-08-30T15:05:44;1.40;;;1.30;;
4630;SDS011;2328;48.170;11.602;2023-08-30T15:08:13;1.30;;;1.20;;
4630;SDS011;2328;48.170;11.602;2023-08-30T15:10:41;1.20;;;1.10;;
4630;SDS011;2328;48.170;11.602;2023-08-30T15:13:10;1.20;;;1.10;;
4630;SDS011;2328;48.170;11.602;2023-08-30T15:15:40;1.57;;;0.90;;
4630;SDS011;2328;48.170;11.602;2023-08-30T15:18:09;1.10;;;1.10;;
4630;SDS011;2328;48.170;11.602;2023-08-30T15:20:38;2.27;;;1.37;;
4630;SDS011;2328;48.170;11.602;2023-08-30T15:23:07;1.40;;;1.30;;
4630;SDS011;2328;48.170;11.602;2023-08-30T15:25:39;1.20;;;1.10;;
4630;SDS011;2328;48.170;11.602;2023-08-30T15:28:07;2.23;;;1.23;;
4630;SDS011;2328;48.170;11.602;2023-08-30T15:30:36;1.97;;;1.20;;
4630;SDS011;2328;48.170;11.602;2023-08-30T15:33:09;1.30;;;1.20;;
4630;SDS011;2328;48.170;11.602;2023-08-30T15:35:40;1.30;;;1.20;;
4630;SDS011;2328;48.170;11.602;2023-08-30T15:38:09;1.50;;;1.40;;